バグダッド の空港の天気 - METARとTAF

バグダッド国際空港 ( ORBI / BGW ) - イラク バグダード
飛行場実況気象(Metar)
観測時間06/14 23:00 AST (06/14 20:00 UTC)
風向・風速北西 3m/s
視程10km以上
天気現象
なし
気温29℃
湿度25%
気圧1000hPa
METARORBI 142000Z 32005KT CAVOK 29/07 Q1000 NOSIG
過去の天気等 Google飛行場航空写真 Wunderground天気予報

過去48時間のMETAR

飛行場予報(TAF)
発表時間: 6/14 20:00 AST (6/14 17:00 UTC)
予報対象時間: 14日21時 AST ~ 15日21時 AST
風向・風速北北西 5m/s
視程10km以上
なし
TAF ORBI 141700Z 1418/1518 33010KT CAVOK